KTDZ/TDZ METAR and TAF weather

Enter ICAO airport designator
Station Type Date Time Source
KTDZ METAR 2021/05/15 00:53 UTC NOAA

KTDZ 150053Z AUTO 15004KT 10SM CLR 17/00 A3025 RMK AO2 SLP242 T01670000


Station Type Date Time Source
KTDZ Decoded METAR 2021/05/15 00:53 UTC NOAA

TOLEDO METCALF FIELD, OH, United States (KTDZ) 41-34N 83-29W 189M
May 14, 2021 - 08:53 PM EDT / 2021.05.15 0053 UTC
Wind: from the SSE (150 degrees) at 5 MPH (4 KT):0
Visibility: 10 mile(s):0
Sky conditions: clear
Temperature: 62.1 F (16.7 C)
Dew Point: 32.0 F (0.0 C)
Relative Humidity: 32%
Pressure (altimeter): 30.25 in. Hg (1024 hPa)
ob: KTDZ 150053Z AUTO 15004KT 10SM CLR 17/00 A3025 RMK AO2 SLP242 T01670000
cycle: 1

Station Type Date Time Source
KTDZ TAF UTC NOAA

Error!

Example: see airport list